Old Fields, West Virginia
Current Conditions -  °F | °C
As of 11:15 PM on Thursday 27 Nov 2014 (Local Time) from KW99 Reporting Station
Overcast Overcast  
Wind Chill: 26°   Ceiling: 7000
Heat Index: 31°   Visibility: 10mi
Dew Point: 19°   Wind: 6mph
Humidity: 60%   Direction: 310°NW
Pressure: 30.23"   Gusts: NA
Location:  39.14°N, 78.95°W
Report Text: KW99 280415Z AUTO 31005KT 10SM OVC070 00/M07 A3023 RMK AO2 T10031073
Loading
Personal Weather Stations






























Interactive Weather Map New forecast layout! Learn more

10-Day Weather Forecast

Advertisements
Track Severe Weather on mobile